createdAt,value
2018-12-14T00:00:03.904Z,21.77
2018-12-14T00:02:32.936Z,21.67
2018-12-14T00:05:01.462Z,22.10
2018-12-14T00:07:29.854Z,21.87
2018-12-14T00:09:58.279Z,22.37
2018-12-14T00:12:26.704Z,22.47
2018-12-14T00:14:55.114Z,21.80
2018-12-14T00:17:23.788Z,21.53
2018-12-14T00:19:52.191Z,22.70
2018-12-14T00:22:20.593Z,21.00
2018-12-14T00:24:49.000Z,22.27
2018-12-14T00:27:17.885Z,21.57
2018-12-14T00:29:46.407Z,22.23
2018-12-14T00:32:15.498Z,20.63
2018-12-14T00:34:43.966Z,22.07
2018-12-14T00:37:12.375Z,22.20
2018-12-14T00:39:40.791Z,21.77
2018-12-14T00:42:09.199Z,21.40
2018-12-14T00:44:37.782Z,21.83
2018-12-14T00:47:07.380Z,22.17
2018-12-14T00:49:36.044Z,20.87
2018-12-14T00:52:04.598Z,22.33
2018-12-14T00:54:33.063Z,22.13
2018-12-14T00:57:01.525Z,22.60
2018-12-14T00:59:29.919Z,22.87
2018-12-14T01:01:58.418Z,22.50
2018-12-14T01:04:26.949Z,22.50
2018-12-14T01:06:55.368Z,22.77
2018-12-14T01:09:23.795Z,21.33
2018-12-14T01:11:58.057Z,22.13
2018-12-14T01:14:22.618Z,21.90
2018-12-14T01:16:51.088Z,21.70
2018-12-14T01:19:19.521Z,22.90
2018-12-14T01:21:47.923Z,22.97
2018-12-14T01:24:16.336Z,21.80
2018-12-14T01:26:44.760Z,21.83
2018-12-14T01:29:13.181Z,22.07
2018-12-14T01:31:41.588Z,21.73
2018-12-14T01:34:10.303Z,22.17
2018-12-14T01:36:38.806Z,21.83
2018-12-14T01:39:08.244Z,21.40
2018-12-14T01:41:36.673Z,22.13
2018-12-14T01:44:05.075Z,21.17
2018-12-14T01:46:33.556Z,22.07
2018-12-14T01:49:01.999Z,21.67
2018-12-14T01:51:30.520Z,22.77
2018-12-14T01:53:58.952Z,21.77
2018-12-14T01:56:27.377Z,20.97
2018-12-14T01:58:55.808Z,21.73
2018-12-14T02:01:24.259Z,21.33
2018-12-14T02:03:52.748Z,21.60
2018-12-14T02:06:21.191Z,23.10
2018-12-14T02:08:49.655Z,21.47
2018-12-14T02:11:18.207Z,23.03
2018-12-14T02:13:46.602Z,21.07
2018-12-14T02:16:15.020Z,21.27
2018-12-14T02:18:43.527Z,21.73
2018-12-14T02:21:11.943Z,22.67
2018-12-14T02:23:40.351Z,22.27
2018-12-14T02:26:08.765Z,21.60
2018-12-14T02:28:37.175Z,21.07
2018-12-14T02:31:05.599Z,21.97
2018-12-14T02:33:34.011Z,22.80
2018-12-14T02:36:02.415Z,20.87
2018-12-14T02:38:30.917Z,22.83
2018-12-14T02:40:59.445Z,20.77
2018-12-14T02:43:27.956Z,21.67
2018-12-14T02:45:56.391Z,20.67
2018-12-14T02:48:24.960Z,21.27
2018-12-14T02:50:53.418Z,21.83
2018-12-14T02:53:21.880Z,20.50
2018-12-14T02:55:50.275Z,21.07
2018-12-14T02:58:18.685Z,21.33
2018-12-14T03:00:47.101Z,20.30
2018-12-14T03:03:15.585Z,20.80
2018-12-14T03:05:43.999Z,20.90
2018-12-14T03:08:12.436Z,20.17
2018-12-14T03:10:40.877Z,21.23
2018-12-14T03:13:09.277Z,20.60
2018-12-14T03:15:37.700Z,20.70
2018-12-14T03:18:06.125Z,19.60
2018-12-14T03:20:34.641Z,19.33
2018-12-14T03:23:03.061Z,21.30
2018-12-14T03:25:31.488Z,20.60
2018-12-14T03:27:59.912Z,21.53
2018-12-14T03:30:28.468Z,19.37
2018-12-14T03:32:56.897Z,19.60
2018-12-14T03:35:25.308Z,21.03
2018-12-14T03:37:53.749Z,19.70
2018-12-14T03:40:22.174Z,19.33
2018-12-14T03:42:50.595Z,19.63
2018-12-14T03:45:19.141Z,19.10
2018-12-14T03:47:47.564Z,19.87
2018-12-14T03:50:16.027Z,20.00
2018-12-14T03:52:44.435Z,19.50
2018-12-14T03:55:12.956Z,18.97
2018-12-14T03:57:41.392Z,18.93
2018-12-14T04:00:11.171Z,19.97
2018-12-14T04:02:39.598Z,20.57
2018-12-14T04:05:08.191Z,20.53
2018-12-14T04:07:36.608Z,18.87
2018-12-14T04:10:05.728Z,19.33
2018-12-14T04:12:41.291Z,19.87
2018-12-14T04:15:05.383Z,19.10
2018-12-14T04:17:33.794Z,19.37
2018-12-14T04:20:02.593Z,20.50
2018-12-14T04:22:31.163Z,20.40
2018-12-14T04:24:59.851Z,21.87
2018-12-14T04:27:28.544Z,19.70
2018-12-14T04:29:56.951Z,21.47
2018-12-14T04:32:25.355Z,19.73
2018-12-14T04:34:53.740Z,19.37
2018-12-14T04:37:22.136Z,18.93
2018-12-14T04:39:50.526Z,20.20
2018-12-14T04:42:19.037Z,20.33
2018-12-14T04:44:47.547Z,20.33
2018-12-14T04:47:16.958Z,20.93
2018-12-14T04:49:45.761Z,22.03
2018-12-14T04:52:14.259Z,21.13
2018-12-14T04:54:42.677Z,21.63
2018-12-14T04:57:11.160Z,20.97
2018-12-14T04:59:39.565Z,20.50
2018-12-14T05:02:08.242Z,20.70
2018-12-14T05:04:36.845Z,21.73
2018-12-14T05:07:05.272Z,19.37
2018-12-14T05:09:33.856Z,20.93
2018-12-14T05:12:02.276Z,21.60
2018-12-14T05:14:30.656Z,19.40
2018-12-14T05:16:59.141Z,20.07
2018-12-14T05:19:27.589Z,21.07
2018-12-14T05:21:56.335Z,22.57
2018-12-14T05:24:24.759Z,25.33
2018-12-14T05:26:53.984Z,26.53
2018-12-14T05:29:22.417Z,26.47
2018-12-14T05:31:50.919Z,30.00
2018-12-14T05:34:19.373Z,31.13
2018-12-14T05:36:47.768Z,31.73
2018-12-14T05:39:16.210Z,33.90
2018-12-14T05:41:44.601Z,33.23
2018-12-14T05:44:13.031Z,34.30
2018-12-14T05:46:41.536Z,35.17
2018-12-14T05:49:09.935Z,37.93
2018-12-14T05:51:38.415Z,36.70
2018-12-14T05:54:06.940Z,38.83
2018-12-14T05:56:35.467Z,35.20
2018-12-14T05:59:03.887Z,36.57
2018-12-14T06:01:32.389Z,37.00
2018-12-14T06:04:00.915Z,36.47
2018-12-14T06:06:29.334Z,37.80
2018-12-14T06:08:57.978Z,38.50
2018-12-14T06:11:26.570Z,36.63
2018-12-14T06:13:55.001Z,36.40
2018-12-14T06:16:23.401Z,36.77
2018-12-14T06:18:51.944Z,38.00
2018-12-14T06:21:20.350Z,36.87
2018-12-14T06:23:48.871Z,36.07
2018-12-14T06:26:17.256Z,36.57
2018-12-14T06:28:45.761Z,35.83
2018-12-14T06:31:14.222Z,36.43
2018-12-14T06:33:42.656Z,35.87
2018-12-14T06:36:11.055Z,33.70
2018-12-14T06:38:39.467Z,34.37
2018-12-14T06:41:07.930Z,36.43
2018-12-14T06:43:36.364Z,35.90
2018-12-14T06:46:04.788Z,35.07
2018-12-14T06:48:33.229Z,34.70
2018-12-14T06:51:02.060Z,36.10
2018-12-14T06:53:30.464Z,34.27
2018-12-14T06:55:58.866Z,34.47
2018-12-14T06:58:27.259Z,33.23
2018-12-14T07:00:55.716Z,35.00
2018-12-14T07:03:24.131Z,33.57
2018-12-14T07:05:52.519Z,32.77
2018-12-14T07:08:20.974Z,32.50
2018-12-14T07:10:49.379Z,32.53
2018-12-14T07:13:21.927Z,33.00
2018-12-14T07:15:48.224Z,33.80
2018-12-14T07:18:16.660Z,32.47
2018-12-14T07:20:45.383Z,32.83
2018-12-14T07:23:13.887Z,33.03
2018-12-14T07:25:42.284Z,33.83
2018-12-14T07:28:10.668Z,34.07
2018-12-14T07:30:39.207Z,33.00
2018-12-14T07:33:07.612Z,34.07
2018-12-14T07:35:41.756Z,33.43
2018-12-14T07:38:06.464Z,31.83
2018-12-14T07:40:34.951Z,33.27
2018-12-14T07:43:03.491Z,32.60
2018-12-14T07:45:31.909Z,31.23
2018-12-14T07:48:00.313Z,30.33
2018-12-14T07:50:28.732Z,29.93
2018-12-14T07:52:58.789Z,28.10
2018-12-14T07:55:27.442Z,28.53
2018-12-14T07:57:55.864Z,27.87
2018-12-14T08:00:24.299Z,27.97
2018-12-14T08:02:52.739Z,28.97
2018-12-14T08:05:21.257Z,30.77
2018-12-14T08:07:49.695Z,30.30
2018-12-14T08:10:18.259Z,31.83
2018-12-14T08:12:47.063Z,33.30
2018-12-14T08:15:16.011Z,29.77
2018-12-14T08:17:44.429Z,29.60
2018-12-14T08:20:17.067Z,30.40
2018-12-14T08:22:43.306Z,30.93
2018-12-14T08:25:11.804Z,29.10
2018-12-14T08:27:40.224Z,29.27
2018-12-14T08:30:08.996Z,30.30
2018-12-14T08:32:37.438Z,30.00
2018-12-14T08:35:06.078Z,31.20
2018-12-14T08:37:34.537Z,32.43
2018-12-14T08:40:03.037Z,30.30
2018-12-14T08:42:32.482Z,31.33
2018-12-14T08:45:00.900Z,31.43
2018-12-14T08:47:29.305Z,32.87
2018-12-14T08:49:57.757Z,31.03
2018-12-14T08:52:26.217Z,31.70
2018-12-14T08:54:54.639Z,31.57
2018-12-14T08:57:23.069Z,31.50
2018-12-14T08:59:51.535Z,32.87
2018-12-14T09:02:19.987Z,34.93
2018-12-14T09:04:48.467Z,33.77
2018-12-14T09:07:16.961Z,34.50
2018-12-14T09:09:45.371Z,34.40
2018-12-14T09:12:13.841Z,35.23
2018-12-14T09:14:42.255Z,35.77
2018-12-14T09:17:10.667Z,34.97
2018-12-14T09:19:39.089Z,39.10
2018-12-14T09:22:07.608Z,36.20
2018-12-14T09:24:36.071Z,36.63
2018-12-14T09:27:04.484Z,37.53
2018-12-14T09:29:32.875Z,38.27
2018-12-14T09:32:01.428Z,39.73
2018-12-14T09:34:29.843Z,36.80
2018-12-14T09:36:58.315Z,40.53
2018-12-14T09:39:26.715Z,38.90
2018-12-14T09:41:55.159Z,37.80
2018-12-14T09:44:23.576Z,38.63
2018-12-14T09:46:51.990Z,38.57
2018-12-14T09:49:20.431Z,38.80
2018-12-14T09:51:48.838Z,38.03
2018-12-14T09:54:17.240Z,37.37
2018-12-14T09:56:45.674Z,38.03
2018-12-14T09:59:14.152Z,39.90
2018-12-14T10:01:42.644Z,40.57
2018-12-14T10:04:11.056Z,42.63
2018-12-14T10:06:40.714Z,39.73
2018-12-14T10:09:09.326Z,39.90
2018-12-14T10:11:37.716Z,42.07
2018-12-14T10:14:06.127Z,41.23
2018-12-14T10:16:34.603Z,41.03
2018-12-14T10:19:03.541Z,40.87
2018-12-14T10:21:31.950Z,41.63
2018-12-14T10:24:00.411Z,43.27
2018-12-14T10:26:28.833Z,41.17
2018-12-14T10:28:58.669Z,41.33
2018-12-14T10:31:27.286Z,41.23
2018-12-14T10:33:55.679Z,41.80
2018-12-14T10:36:24.172Z,43.83
2018-12-14T10:38:52.747Z,45.30
2018-12-14T10:41:21.152Z,45.87
2018-12-14T10:43:49.584Z,46.87
2018-12-14T10:46:18.194Z,39.70
2018-12-14T10:48:46.599Z,42.90
2018-12-14T10:51:14.991Z,41.83
2018-12-14T10:53:43.407Z,41.57
2018-12-14T10:56:11.845Z,43.37
2018-12-14T10:58:40.265Z,43.70
2018-12-14T11:01:14.440Z,45.00
2018-12-14T11:03:43.028Z,45.50
2018-12-14T11:06:11.462Z,42.67
2018-12-14T11:08:39.879Z,44.80
2018-12-14T11:11:08.292Z,45.17
2018-12-14T11:13:36.727Z,44.93
2018-12-14T11:16:05.157Z,45.80
2018-12-14T11:18:33.660Z,46.23
2018-12-14T11:21:02.199Z,45.27
2018-12-14T11:23:30.620Z,44.33
2018-12-14T11:25:59.041Z,46.17
2018-12-14T11:28:27.551Z,44.20
2018-12-14T11:30:55.973Z,43.60
2018-12-14T11:33:24.373Z,45.23
2018-12-14T11:35:53.252Z,42.90
2018-12-14T11:38:22.028Z,44.77
2018-12-14T11:40:50.461Z,43.53
2018-12-14T11:43:19.019Z,43.90
2018-12-14T11:45:47.640Z,43.30
2018-12-14T11:48:16.084Z,45.47
2018-12-14T11:50:44.662Z,42.53
2018-12-14T11:53:17.849Z,45.93
2018-12-14T11:55:46.300Z,44.03
2018-12-14T11:58:15.281Z,46.43
2018-12-14T12:00:43.810Z,42.70
2018-12-14T12:03:12.374Z,43.20
2018-12-14T12:05:43.072Z,43.67
2018-12-14T12:08:13.240Z,41.90
2018-12-14T12:10:41.838Z,43.37
2018-12-14T12:13:10.231Z,42.23
2018-12-14T12:15:38.799Z,41.67
2018-12-14T12:18:07.355Z,43.17
2018-12-14T12:20:35.762Z,42.77
2018-12-14T12:23:04.206Z,42.07
2018-12-14T12:25:32.722Z,43.73
2018-12-14T12:28:01.113Z,41.73
2018-12-14T12:30:29.536Z,42.10
2018-12-14T12:32:57.941Z,42.53
2018-12-14T12:35:26.409Z,40.80
2018-12-14T12:37:54.928Z,41.03
2018-12-14T12:40:23.404Z,40.80
2018-12-14T12:42:51.829Z,40.53
2018-12-14T12:45:20.342Z,40.57
2018-12-14T12:47:48.886Z,40.10
2018-12-14T12:50:17.299Z,40.10
2018-12-14T12:52:45.717Z,40.07
2018-12-14T12:55:14.228Z,39.90
2018-12-14T12:57:42.640Z,38.77
2018-12-14T13:00:18.395Z,36.97
2018-12-14T13:02:46.876Z,37.30
2018-12-14T13:05:15.324Z,38.07
2018-12-14T13:07:43.737Z,39.30
2018-12-14T13:10:12.277Z,37.03
2018-12-14T13:12:40.701Z,37.73
2018-12-14T13:15:09.432Z,36.33
2018-12-14T13:17:37.961Z,37.77
2018-12-14T13:20:06.499Z,35.83
2018-12-14T13:22:34.936Z,35.77
2018-12-14T13:25:03.437Z,36.73
2018-12-14T13:27:31.858Z,34.83
2018-12-14T13:30:00.333Z,35.20
2018-12-14T13:32:28.761Z,33.27
2018-12-14T13:34:57.157Z,33.67
2018-12-14T13:37:25.681Z,33.13
2018-12-14T13:39:54.158Z,31.97
2018-12-14T13:42:22.582Z,33.40
2018-12-14T13:44:51.410Z,32.63
2018-12-14T13:47:19.945Z,33.80
2018-12-14T13:49:48.497Z,32.10
2018-12-14T13:52:16.935Z,31.90
2018-12-14T13:54:45.350Z,32.37
2018-12-14T13:57:13.775Z,31.73
2018-12-14T13:59:42.213Z,33.00
2018-12-14T14:02:10.654Z,32.37
2018-12-14T14:04:39.079Z,32.27
2018-12-14T14:07:07.512Z,31.73
2018-12-14T14:09:36.067Z,32.20
2018-12-14T14:12:04.492Z,32.77
2018-12-14T14:14:32.979Z,30.47
2018-12-14T14:17:01.591Z,28.97
2018-12-14T14:19:30.247Z,31.07
2018-12-14T14:21:58.674Z,32.10
2018-12-14T14:24:27.236Z,32.00
2018-12-14T14:26:55.664Z,32.27
2018-12-14T14:29:24.095Z,30.47
2018-12-14T14:31:52.504Z,32.20
2018-12-14T14:34:21.863Z,31.53
2018-12-14T14:36:52.063Z,31.37
2018-12-14T14:39:22.151Z,32.97
2018-12-14T14:41:50.675Z,30.90
2018-12-14T14:44:19.176Z,33.17
2018-12-14T14:46:47.589Z,32.77
2018-12-14T14:49:16.069Z,31.93
2018-12-14T14:51:45.041Z,31.37
2018-12-14T14:54:14.135Z,32.83
2018-12-14T14:56:42.811Z,33.80
2018-12-14T14:59:11.255Z,31.47
2018-12-14T15:01:39.693Z,31.93
2018-12-14T15:04:08.183Z,31.17
2018-12-14T15:06:36.603Z,31.63
2018-12-14T15:09:07.250Z,32.03
2018-12-14T15:11:35.738Z,32.57
2018-12-14T15:14:04.201Z,32.50
2018-12-14T15:16:32.655Z,30.93
2018-12-14T15:19:01.101Z,32.43
2018-12-14T15:21:29.528Z,32.53
2018-12-14T15:23:58.075Z,34.60
2018-12-14T15:26:26.645Z,35.30
2018-12-14T15:28:55.067Z,36.37
2018-12-14T15:31:23.531Z,34.80
2018-12-14T15:33:52.031Z,35.10
2018-12-14T15:36:20.505Z,32.43
2018-12-14T15:38:48.959Z,33.23
2018-12-14T15:41:17.447Z,33.70
2018-12-14T15:43:46.009Z,34.80
2018-12-14T15:46:14.553Z,35.80
2018-12-14T15:48:43.380Z,34.40
2018-12-14T15:51:11.857Z,34.47
2018-12-14T15:53:40.362Z,32.50
2018-12-14T15:56:08.834Z,33.20
2018-12-14T15:58:37.383Z,35.77
2018-12-14T16:01:06.040Z,37.17
2018-12-14T16:03:34.540Z,35.20
2018-12-14T16:06:02.994Z,36.23
2018-12-14T16:08:31.429Z,37.10
2018-12-14T16:10:59.866Z,36.60
2018-12-14T16:13:28.314Z,34.93
2018-12-14T16:15:56.916Z,33.77
2018-12-14T16:18:25.381Z,32.80
2018-12-14T16:20:53.864Z,36.87
2018-12-14T16:23:22.409Z,40.00
2018-12-14T16:25:50.899Z,45.30
2018-12-14T16:28:19.332Z,38.67
2018-12-14T16:30:47.966Z,35.83
2018-12-14T16:33:16.413Z,32.90
2018-12-14T16:35:45.032Z,31.87
2018-12-14T16:38:13.781Z,32.77
2018-12-14T16:40:42.329Z,32.80
2018-12-14T16:43:10.764Z,31.93
2018-12-14T16:45:39.524Z,32.90
2018-12-14T16:48:08.209Z,32.70
2018-12-14T16:50:36.656Z,32.87
2018-12-14T16:53:05.123Z,32.30
2018-12-14T16:55:33.620Z,32.50
2018-12-14T16:58:02.081Z,32.40
2018-12-14T17:00:30.898Z,33.23
2018-12-14T17:02:59.478Z,34.37
2018-12-14T17:05:27.935Z,33.37
2018-12-14T17:07:56.385Z,32.67
2018-12-14T17:10:26.191Z,34.60
2018-12-14T17:12:54.696Z,33.93
2018-12-14T17:15:23.162Z,32.77
2018-12-14T17:17:51.623Z,32.13
2018-12-14T17:20:20.116Z,31.43
2018-12-14T17:22:48.666Z,28.33
2018-12-14T17:25:17.104Z,26.50
2018-12-14T17:27:45.772Z,28.33
2018-12-14T17:30:14.368Z,27.97
2018-12-14T17:32:42.839Z,29.10
2018-12-14T17:35:11.544Z,28.70
2018-12-14T17:37:40.063Z,26.97
2018-12-14T17:40:08.802Z,27.00
2018-12-14T17:42:37.241Z,26.67
2018-12-14T17:45:05.871Z,26.67
2018-12-14T17:47:34.297Z,26.23
2018-12-14T17:50:02.856Z,26.13
2018-12-14T17:52:31.307Z,26.63
2018-12-14T17:54:59.722Z,26.13
2018-12-14T17:57:28.158Z,25.93
2018-12-14T17:59:56.586Z,26.97
2018-12-14T18:02:25.263Z,27.60
2018-12-14T18:04:53.812Z,34.37
2018-12-14T18:07:22.309Z,33.43
2018-12-14T18:09:50.727Z,29.93
2018-12-14T18:12:19.155Z,27.27
2018-12-14T18:14:48.271Z,27.40
2018-12-14T18:17:16.840Z,27.17
2018-12-14T18:19:45.352Z,27.17
2018-12-14T18:22:14.676Z,28.20
2018-12-14T18:24:43.103Z,25.37
2018-12-14T18:27:11.523Z,26.70
2018-12-14T18:29:40.110Z,26.87
2018-12-14T18:32:08.542Z,26.40
2018-12-14T18:34:36.959Z,27.63
2018-12-14T18:37:05.462Z,27.20
2018-12-14T18:39:33.911Z,27.23
2018-12-14T18:42:02.351Z,31.30
2018-12-14T18:44:30.850Z,29.60
2018-12-14T18:46:59.301Z,29.70
2018-12-14T18:49:27.712Z,28.67
2018-12-14T18:51:56.168Z,28.17
2018-12-14T18:54:24.596Z,28.27
2018-12-14T18:56:53.018Z,27.90
2018-12-14T18:59:21.621Z,27.17
2018-12-14T19:01:50.049Z,29.20
2018-12-14T19:04:18.588Z,29.57
2018-12-14T19:06:47.136Z,31.90
2018-12-14T19:09:22.290Z,32.27
2018-12-14T19:11:50.719Z,29.13
2018-12-14T19:14:19.161Z,30.17
2018-12-14T19:16:47.645Z,31.03
2018-12-14T19:19:16.196Z,33.67
2018-12-14T19:21:44.626Z,33.10
2018-12-14T19:24:13.102Z,32.90
2018-12-14T19:26:41.620Z,31.20
2018-12-14T19:29:10.075Z,31.40
2018-12-14T19:31:38.632Z,30.90
2018-12-14T19:34:07.082Z,30.67
2018-12-14T19:36:35.522Z,30.43
2018-12-14T19:39:05.685Z,31.47
2018-12-14T19:41:34.102Z,30.87
2018-12-14T19:44:02.554Z,30.60
2018-12-14T19:46:31.057Z,30.20
2018-12-14T19:48:59.515Z,34.80
2018-12-14T19:51:27.945Z,34.57
2018-12-14T19:53:56.391Z,34.80
2018-12-14T19:56:24.863Z,33.80
2018-12-14T19:58:53.450Z,32.30
2018-12-14T20:01:22.004Z,31.87
2018-12-14T20:03:50.445Z,31.27
2018-12-14T20:06:18.925Z,29.70
2018-12-14T20:08:47.330Z,27.40
2018-12-14T20:11:15.807Z,28.37
2018-12-14T20:13:44.311Z,30.63
2018-12-14T20:16:13.020Z,27.80
2018-12-14T20:18:41.590Z,28.67
2018-12-14T20:21:10.024Z,28.63
2018-12-14T20:23:38.475Z,28.17
2018-12-14T20:26:06.954Z,27.53
2018-12-14T20:28:35.354Z,26.37
2018-12-14T20:31:03.889Z,27.40
2018-12-14T20:33:32.290Z,27.50
2018-12-14T20:36:00.697Z,26.57
2018-12-14T20:38:29.211Z,27.93
2018-12-14T20:40:57.653Z,29.70
2018-12-14T20:43:26.121Z,31.83
2018-12-14T20:45:54.561Z,32.00
2018-12-14T20:48:23.011Z,31.40
2018-12-14T20:50:51.451Z,32.73
2018-12-14T20:53:19.918Z,32.83
2018-12-14T20:55:48.448Z,32.87
2018-12-14T20:58:16.891Z,32.20
2018-12-14T21:00:45.395Z,32.90
2018-12-14T21:03:13.823Z,31.83
2018-12-14T21:05:42.250Z,31.30
2018-12-14T21:08:10.708Z,31.83
2018-12-14T21:10:39.169Z,31.90
2018-12-14T21:13:08.653Z,32.67
2018-12-14T21:15:37.119Z,31.43
2018-12-14T21:18:05.708Z,32.17
2018-12-14T21:20:34.189Z,31.67
2018-12-14T21:23:02.617Z,33.63
2018-12-14T21:25:31.075Z,33.67
2018-12-14T21:27:59.517Z,31.87
2018-12-14T21:30:27.916Z,31.50
2018-12-14T21:32:56.339Z,29.67
2018-12-14T21:35:24.749Z,29.80
2018-12-14T21:37:53.231Z,30.67
2018-12-14T21:40:21.657Z,30.60
2018-12-14T21:42:50.090Z,30.33
2018-12-14T21:45:18.531Z,30.90
2018-12-14T21:47:46.938Z,29.27
2018-12-14T21:50:15.403Z,31.10
2018-12-14T21:52:43.815Z,29.43
2018-12-14T21:55:12.250Z,31.63
2018-12-14T21:57:40.688Z,31.40
2018-12-14T22:00:11.143Z,32.00
2018-12-14T22:02:39.541Z,33.13
2018-12-14T22:05:08.875Z,31.97
2018-12-14T22:07:37.449Z,33.63
2018-12-14T22:10:06.994Z,33.37
2018-12-14T22:12:35.414Z,32.20
2018-12-14T22:15:04.240Z,32.10
2018-12-14T22:17:32.781Z,30.33
2018-12-14T22:20:01.191Z,31.43
2018-12-14T22:22:29.834Z,31.10
2018-12-14T22:24:58.235Z,32.23
2018-12-14T22:27:26.644Z,31.73
2018-12-14T22:29:55.078Z,33.33
2018-12-14T22:32:23.514Z,32.57
2018-12-14T22:34:51.928Z,31.20
2018-12-14T22:37:20.361Z,32.43
2018-12-14T22:39:49.119Z,32.43
2018-12-14T22:42:17.579Z,32.30
2018-12-14T22:44:46.124Z,33.13
2018-12-14T22:47:14.711Z,31.93
2018-12-14T22:49:43.136Z,33.53
2018-12-14T22:52:11.577Z,32.87
2018-12-14T22:54:39.984Z,34.70
2018-12-14T22:57:08.444Z,31.03
2018-12-14T22:59:36.907Z,31.17
2018-12-14T23:02:05.508Z,32.00
2018-12-14T23:04:33.925Z,30.03
2018-12-14T23:07:02.360Z,32.43
2018-12-14T23:09:30.783Z,31.77
2018-12-14T23:11:59.216Z,30.80
2018-12-14T23:14:27.665Z,32.67
2018-12-14T23:16:56.075Z,31.33
2018-12-14T23:19:24.492Z,31.03
2018-12-14T23:21:52.961Z,31.00
2018-12-14T23:24:21.528Z,32.10
2018-12-14T23:26:49.959Z,31.43
2018-12-14T23:29:18.557Z,31.30
2018-12-14T23:31:46.956Z,30.03
2018-12-14T23:34:15.424Z,31.20
2018-12-14T23:36:43.845Z,32.73
2018-12-14T23:39:12.223Z,29.70
2018-12-14T23:41:40.645Z,30.13
2018-12-14T23:44:09.084Z,30.17
2018-12-14T23:46:37.495Z,31.17
2018-12-14T23:49:05.883Z,29.33
2018-12-14T23:51:34.435Z,29.37
2018-12-14T23:54:02.837Z,29.63
2018-12-14T23:56:31.267Z,30.87
2018-12-14T23:58:59.713Z,30.57
